createdAt,value
2018-07-21T00:00:54.858Z,97641.42
2018-07-21T00:03:25.133Z,97641.56
2018-07-21T00:05:54.994Z,97643.52
2018-07-21T00:08:25.050Z,97641.30
2018-07-21T00:10:55.546Z,97637.46
2018-07-21T00:13:25.578Z,97638.61
2018-07-21T00:15:55.367Z,97636.66
2018-07-21T00:18:25.331Z,97629.75
2018-07-21T00:20:55.626Z,97631.08
2018-07-21T00:23:25.570Z,97633.20
2018-07-21T00:25:55.447Z,97633.09
2018-07-21T00:28:25.494Z,97645.94
2018-07-21T00:31:08.688Z,97653.19
2018-07-21T00:33:38.493Z,97657.48
2018-07-21T00:36:08.593Z,97659.81
2018-07-21T00:38:38.466Z,97651.20
2018-07-21T00:41:09.132Z,97646.87
2018-07-21T00:43:50.462Z,97639.59
2018-07-21T00:46:20.659Z,97634.98
2018-07-21T00:48:50.751Z,97637.52
2018-07-21T00:51:20.524Z,97639.94
2018-07-21T00:54:03.150Z,97634.29
2018-07-21T00:56:32.904Z,97625.33
2018-07-21T00:59:02.771Z,97644.02
2018-07-21T01:01:32.618Z,97641.85
2018-07-21T01:04:02.778Z,97640.22
2018-07-21T01:06:32.673Z,97642.34
2018-07-21T01:09:02.532Z,97634.67
2018-07-21T01:11:32.579Z,97644.77
2018-07-21T01:14:02.728Z,97649.41
2018-07-21T01:16:32.643Z,97642.75
2018-07-21T01:19:02.502Z,97642.08
2018-07-21T01:21:32.370Z,97642.08
2018-07-21T01:24:02.234Z,97637.58
2018-07-21T01:26:33.276Z,97642.39
2018-07-21T01:29:05.697Z,97638.55
2018-07-21T01:31:35.981Z,97641.41
2018-07-21T01:34:05.807Z,97639.43
2018-07-21T01:36:37.202Z,97635.77
2018-07-21T01:39:10.011Z,97635.47
2018-07-21T01:41:39.927Z,97624.38
2018-07-21T01:44:10.273Z,97620.48
2018-07-21T01:46:40.016Z,97622.95
2018-07-21T01:49:09.825Z,97617.83
2018-07-21T01:51:40.101Z,97618.98
2018-07-21T01:54:09.963Z,97618.31
2018-07-21T01:56:39.734Z,97613.86
2018-07-21T01:59:09.695Z,97610.86
2018-07-21T02:01:41.203Z,97612.22
2018-07-21T02:04:11.051Z,97611.38
2018-07-21T02:06:41.730Z,97609.92
2018-07-21T02:09:13.151Z,97609.77
2018-07-21T02:11:43.010Z,97605.97
2018-07-21T02:14:12.854Z,97597.53
2018-07-21T02:16:42.922Z,97596.73
2018-07-21T02:19:12.696Z,97602.83
2018-07-21T02:21:42.935Z,97606.84
2018-07-21T02:24:15.492Z,97606.84
2018-07-21T02:27:11.580Z,97606.49
2018-07-21T02:29:42.102Z,97599.84
2018-07-21T02:32:34.151Z,97592.87
2018-07-21T02:35:05.268Z,97593.53
2018-07-21T02:37:53.988Z,97591.72
2018-07-21T02:40:23.858Z,97595.03
2018-07-21T02:42:54.213Z,97592.89
2018-07-21T02:45:24.098Z,97593.07
2018-07-21T02:47:55.796Z,97592.41
2018-07-21T02:50:25.830Z,97590.42
2018-07-21T02:52:55.726Z,97596.06
2018-07-21T02:55:25.891Z,97595.26
2018-07-21T02:57:55.773Z,97598.23
2018-07-21T03:00:25.826Z,97592.92
2018-07-21T03:02:56.050Z,97596.90
2018-07-21T03:05:26.265Z,97597.73
2018-07-21T03:07:56.142Z,97601.02
2018-07-21T03:10:26.867Z,97602.20
2018-07-21T03:12:56.842Z,97593.30
2018-07-21T03:15:26.624Z,97588.52
2018-07-21T03:17:57.902Z,97593.81
2018-07-21T03:20:27.706Z,97591.69
2018-07-21T03:22:57.521Z,97592.32
2018-07-21T03:27:18.542Z,97589.03
2018-07-21T03:29:48.653Z,97588.89
2018-07-21T03:32:18.725Z,97589.03
2018-07-21T03:34:49.110Z,97596.32
2018-07-21T03:37:19.123Z,97588.34
2018-07-21T03:39:49.271Z,97587.36
2018-07-21T03:42:35.318Z,97592.00
2018-07-21T03:45:05.338Z,97597.02
2018-07-21T03:47:35.439Z,97603.95
2018-07-21T03:50:06.190Z,97606.95
2018-07-21T03:52:36.301Z,97611.91
2018-07-21T03:55:06.345Z,97610.78
2018-07-21T03:57:36.348Z,97615.94
2018-07-21T04:00:06.569Z,97612.12
2018-07-21T04:02:36.433Z,97615.27
2018-07-21T04:05:09.679Z,97615.42
2018-07-21T04:07:39.543Z,97624.19
2018-07-21T04:10:09.490Z,97625.00
2018-07-21T04:12:39.472Z,97623.58
2018-07-21T04:15:10.906Z,97627.00
2018-07-21T04:17:40.936Z,97634.74
2018-07-21T04:20:10.992Z,97637.87
2018-07-21T04:22:40.857Z,97637.17
2018-07-21T04:25:10.734Z,97637.98
2018-07-21T04:27:40.611Z,97643.72
2018-07-21T04:30:10.929Z,97645.70
2018-07-21T04:32:41.768Z,97657.09
2018-07-21T04:35:11.607Z,97659.56
2018-07-21T04:37:41.596Z,97666.18
2018-07-21T04:40:11.432Z,97671.97
2018-07-21T04:42:41.329Z,97666.84
2018-07-21T04:45:11.672Z,97674.75
2018-07-21T04:47:41.587Z,97680.76
2018-07-21T04:50:11.659Z,97679.78
2018-07-21T04:52:42.098Z,97679.78
2018-07-21T04:55:12.260Z,97683.39
2018-07-21T04:57:42.265Z,97686.05
2018-07-21T05:00:13.275Z,97686.98
2018-07-21T05:02:44.156Z,97684.01
2018-07-21T05:05:14.333Z,97680.75
2018-07-21T05:07:51.513Z,97686.35
2018-07-21T05:10:21.543Z,97684.84
2018-07-21T05:12:52.121Z,97692.98
2018-07-21T05:15:22.036Z,97688.12
2018-07-21T05:18:09.230Z,97689.98
2018-07-21T05:20:39.313Z,97555.76
2018-07-21T05:23:09.742Z,97691.03
2018-07-21T05:31:51.795Z,97696.03
2018-07-21T05:34:21.642Z,97697.76
2018-07-21T05:36:51.494Z,97701.86
2018-07-21T05:39:21.383Z,97705.71
2018-07-21T05:41:51.920Z,97706.06
2018-07-21T05:44:21.822Z,97707.39
2018-07-21T05:46:51.681Z,97704.74
2018-07-21T05:49:21.658Z,97699.13
2018-07-21T05:51:51.510Z,97707.27
2018-07-21T05:54:21.306Z,97710.43
2018-07-21T05:56:53.802Z,97714.53
2018-07-21T05:59:23.731Z,97714.91
2018-07-21T06:01:53.610Z,97712.38
2018-07-21T06:04:27.305Z,97718.56
2018-07-21T06:06:57.271Z,97720.77
2018-07-21T06:09:28.543Z,97716.80
2018-07-21T06:11:58.453Z,97730.16
2018-07-21T06:14:28.484Z,97728.48
2018-07-21T06:16:58.488Z,97734.84
2018-07-21T06:19:28.760Z,97733.52
2018-07-21T06:21:58.722Z,97735.88
2018-07-21T06:24:28.912Z,97735.61
2018-07-21T06:26:59.277Z,97741.41
2018-07-21T06:29:29.207Z,97735.66
2018-07-21T06:31:59.155Z,97741.41
2018-07-21T06:34:29.172Z,97745.25
2018-07-21T06:37:18.014Z,97748.23
2018-07-21T06:39:48.514Z,97750.84
2018-07-21T06:42:18.527Z,97744.89
2018-07-21T06:44:48.429Z,97739.33
2018-07-21T06:47:18.346Z,97744.00
2018-07-21T06:49:48.923Z,97742.99
2018-07-21T06:52:19.251Z,97742.80
2018-07-21T06:54:49.677Z,97740.49
2018-07-21T06:57:19.568Z,97736.73
2018-07-21T06:59:50.022Z,97738.58
2018-07-21T07:02:20.161Z,97735.33
2018-07-21T07:04:50.340Z,97743.95
2018-07-21T07:07:21.612Z,97746.81
2018-07-21T07:09:51.638Z,97742.37
2018-07-21T07:12:23.785Z,97745.19
2018-07-21T07:14:54.022Z,97741.73
2018-07-21T07:17:25.770Z,97749.06
2018-07-21T07:20:13.027Z,97747.44
2018-07-21T07:22:44.662Z,97752.44
2018-07-21T07:25:15.788Z,97756.13
2018-07-21T07:27:46.119Z,97755.47
2018-07-21T07:30:26.301Z,97758.14
2018-07-21T07:32:56.334Z,97754.48
2018-07-21T07:35:27.967Z,97755.50
2018-07-21T07:37:58.135Z,97761.15
2018-07-21T07:40:27.971Z,97758.50
2018-07-21T07:42:57.900Z,97758.17
2018-07-21T07:45:31.339Z,97754.23
2018-07-21T07:48:01.465Z,97760.20
2018-07-21T07:50:31.264Z,97759.02
2018-07-21T07:53:01.211Z,97760.70
2018-07-21T07:55:32.187Z,97761.88
2018-07-21T07:58:03.521Z,97765.86
2018-07-21T08:00:33.623Z,97764.86
2018-07-21T08:03:03.758Z,97770.69
2018-07-21T08:05:34.088Z,97771.51
2018-07-21T08:08:03.947Z,97772.20
2018-07-21T08:10:33.908Z,97776.85
2018-07-21T08:13:09.871Z,97768.54
2018-07-21T08:15:39.684Z,97774.51
2018-07-21T08:18:10.886Z,97774.36
2018-07-21T08:20:40.741Z,97770.38
2018-07-21T08:23:11.045Z,97775.03
2018-07-21T08:25:40.932Z,97777.18
2018-07-21T08:28:11.529Z,97784.83
2018-07-21T08:30:41.422Z,97781.83
2018-07-21T08:33:11.689Z,97787.32
2018-07-21T08:35:41.704Z,97785.80
2018-07-21T08:38:11.997Z,97792.44
2018-07-21T08:40:42.809Z,97791.41
2018-07-21T08:43:12.902Z,97794.73
2018-07-21T08:45:43.461Z,97792.88
2018-07-21T08:48:13.282Z,97794.05
2018-07-21T08:50:43.456Z,97802.66
2018-07-21T08:53:13.978Z,97797.84
2018-07-21T08:55:46.264Z,97797.56
2018-07-21T08:58:16.138Z,97802.82
2018-07-21T09:00:46.092Z,97805.41
2018-07-21T09:03:16.029Z,97807.41
2018-07-21T09:05:46.017Z,97808.52
2018-07-21T09:08:16.011Z,97807.95
2018-07-21T09:10:46.266Z,97807.92
2018-07-21T09:13:16.296Z,97807.70
2018-07-21T09:15:46.275Z,97816.14
2018-07-21T09:18:16.306Z,97813.75
2018-07-21T09:20:46.797Z,97816.67
2018-07-21T09:23:16.957Z,97819.54
2018-07-21T09:25:47.854Z,97826.29
2018-07-21T09:28:17.780Z,97821.92
2018-07-21T09:30:47.861Z,97820.16
2018-07-21T09:33:17.834Z,97822.80
2018-07-21T09:35:48.342Z,97823.13
2018-07-21T09:38:18.258Z,97822.81
2018-07-21T09:40:49.626Z,97823.82
2018-07-21T09:43:19.498Z,97826.80
2018-07-21T09:45:49.392Z,97824.67
2018-07-21T09:48:19.431Z,97833.77
2018-07-21T09:50:49.866Z,97829.61
2018-07-21T09:53:20.088Z,97832.40
2018-07-21T09:55:49.997Z,97835.75
2018-07-21T09:58:19.890Z,97842.86
2018-07-21T10:00:55.002Z,97839.50
2018-07-21T10:03:25.162Z,97843.11
2018-07-21T10:05:56.054Z,97841.25
2018-07-21T10:08:26.022Z,97837.98
2018-07-21T10:10:55.978Z,97842.07
2018-07-21T10:13:27.273Z,97849.64
2018-07-21T10:15:57.730Z,97852.16
2018-07-21T10:18:27.760Z,97846.63
2018-07-21T10:20:57.681Z,97851.13
2018-07-21T10:23:28.574Z,97845.22
2018-07-21T10:26:28.120Z,97856.78
2018-07-21T10:29:03.192Z,97853.44
2018-07-21T10:31:33.697Z,97853.78
2018-07-21T10:34:03.819Z,97856.57
2018-07-21T10:36:33.889Z,97857.41
2018-07-21T10:39:04.661Z,97862.81
2018-07-21T10:41:34.802Z,97861.94
2018-07-21T10:44:09.626Z,97862.33
2018-07-21T10:46:39.710Z,97869.33
2018-07-21T10:49:11.069Z,97862.08
2018-07-21T10:51:41.112Z,97869.71
2018-07-21T10:54:10.914Z,97867.19
2018-07-21T10:56:40.838Z,97867.55
2018-07-21T10:59:12.383Z,97869.28
2018-07-21T11:01:42.295Z,97867.19
2018-07-21T11:04:12.831Z,97866.78
2018-07-21T11:06:42.731Z,97868.73
2018-07-21T11:09:13.095Z,97871.08
2018-07-21T11:11:42.976Z,97869.09
2018-07-21T11:14:12.970Z,97869.44
2018-07-21T11:16:43.699Z,97855.17
2018-07-21T11:19:21.926Z,97860.20
2018-07-21T11:21:52.081Z,97862.99
2018-07-21T11:24:22.555Z,97860.22
2018-07-21T11:26:52.547Z,97860.91
2018-07-21T11:29:22.416Z,97859.28
2018-07-21T11:31:52.642Z,97863.78
2018-07-21T11:34:23.234Z,97862.58
2018-07-21T11:36:53.147Z,97862.39
2018-07-21T11:39:29.655Z,97868.53
2018-07-21T11:42:00.667Z,97866.23
2018-07-21T11:44:30.672Z,97873.58
2018-07-21T11:47:02.346Z,97867.87
2018-07-21T11:49:33.727Z,97863.61
2018-07-21T11:52:06.936Z,97862.45
2018-07-21T11:54:37.303Z,97861.66
2018-07-21T11:57:08.810Z,97855.39
2018-07-21T11:59:38.878Z,97850.30
2018-07-21T12:02:09.439Z,97849.69
2018-07-21T12:04:39.840Z,97852.52
2018-07-21T12:07:09.902Z,97848.09
2018-07-21T12:09:39.999Z,97848.27
2018-07-21T12:12:10.001Z,97847.66
2018-07-21T12:14:39.983Z,97846.95
2018-07-21T12:17:10.634Z,97850.36
2018-07-21T12:19:46.609Z,97852.70
2018-07-21T12:22:16.857Z,97840.06
2018-07-21T12:24:50.095Z,97850.53
2018-07-21T12:27:20.910Z,97844.74
2018-07-21T12:29:52.297Z,97840.98
2018-07-21T12:32:23.053Z,97842.44
2018-07-21T12:34:54.409Z,97846.77
2018-07-21T12:37:24.860Z,97841.99
2018-07-21T12:39:55.252Z,97845.14
2018-07-21T12:42:25.662Z,97841.55
2018-07-21T12:44:55.643Z,97844.69
2018-07-21T12:47:25.613Z,97833.62
2018-07-21T12:49:59.502Z,97837.79
2018-07-21T12:52:29.655Z,97838.87
2018-07-21T12:54:59.560Z,97838.42
2018-07-21T12:57:30.251Z,97838.56
2018-07-21T13:00:01.745Z,97837.95
2018-07-21T13:02:31.983Z,97835.28
2018-07-21T13:05:02.465Z,97832.16
2018-07-21T13:07:32.899Z,97831.70
2018-07-21T13:10:02.827Z,97828.01
2018-07-21T13:12:33.655Z,97830.40
2018-07-21T13:15:03.786Z,97828.66
2018-07-21T13:17:34.086Z,97831.03
2018-07-21T13:20:04.128Z,97831.67
2018-07-21T13:22:34.644Z,97833.16
2018-07-21T13:25:12.950Z,97828.64
2018-07-21T13:27:43.020Z,97831.17
2018-07-21T13:30:13.347Z,97826.01
2018-07-21T13:32:43.225Z,97827.96
2018-07-21T13:35:15.790Z,97833.93
2018-07-21T13:37:58.578Z,97836.47
2018-07-21T13:40:28.737Z,97844.52
2018-07-21T13:42:58.645Z,97842.37
2018-07-21T13:45:28.619Z,97842.47
2018-07-21T13:47:58.582Z,97837.66
2018-07-21T13:50:30.270Z,97844.05
2018-07-21T13:53:00.512Z,97834.48
2018-07-21T13:55:30.818Z,97829.97
2018-07-21T13:58:01.164Z,97831.63
2018-07-21T14:00:48.532Z,97831.11
2018-07-21T14:06:03.112Z,97828.59
2018-07-21T14:08:33.236Z,97823.69
2018-07-21T14:11:12.750Z,97822.88
2018-07-21T14:13:42.741Z,97823.97
2018-07-21T14:16:12.758Z,97822.47
2018-07-21T14:18:51.283Z,97822.95
2018-07-21T14:21:24.872Z,97815.06
2018-07-21T14:23:55.346Z,97809.66
2018-07-21T14:26:25.379Z,97812.48
2018-07-21T14:28:55.354Z,97810.73
2018-07-21T14:31:25.707Z,97804.83
2018-07-21T14:33:55.537Z,97814.22
2018-07-21T14:36:27.896Z,97811.25
2018-07-21T14:38:57.689Z,97821.47
2018-07-21T14:41:29.575Z,97814.89
2018-07-21T14:43:59.640Z,97823.96
2018-07-21T14:46:30.300Z,97824.41
2018-07-21T14:49:00.616Z,97821.31
2018-07-21T14:51:30.768Z,97826.00
2018-07-21T14:54:00.779Z,97826.92
2018-07-21T14:56:32.693Z,97827.26
2018-07-21T14:59:02.641Z,97827.83
2018-07-21T15:01:32.633Z,97832.32
2018-07-21T15:04:02.822Z,97836.23
2018-07-21T15:06:34.331Z,97825.66
2018-07-21T15:09:05.058Z,97828.55
2018-07-21T15:11:35.354Z,97827.27
2018-07-21T15:14:06.989Z,97832.45
2018-07-21T15:16:37.274Z,97829.92
2018-07-21T15:19:07.428Z,97820.38
2018-07-21T15:21:39.852Z,97825.51
2018-07-21T15:24:09.803Z,97829.57
2018-07-21T15:26:39.967Z,97828.97
2018-07-21T15:29:09.982Z,97833.34
2018-07-21T15:31:40.948Z,97832.41
2018-07-21T15:34:11.120Z,97829.98
2018-07-21T15:36:41.715Z,97831.33
2018-07-21T15:39:11.649Z,97826.19
2018-07-21T15:41:41.615Z,97837.19
2018-07-21T15:44:12.144Z,97829.70
2018-07-21T15:46:42.453Z,97826.92
2018-07-21T15:55:08.342Z,97827.27
2018-07-21T15:57:38.228Z,97829.54
2018-07-21T16:00:08.376Z,97827.63
2018-07-21T16:02:38.375Z,97827.83
2018-07-21T16:05:10.803Z,97829.01
2018-07-21T16:07:40.804Z,97827.19
2018-07-21T16:10:10.941Z,97820.61
2018-07-21T16:12:40.896Z,97826.88
2018-07-21T16:15:11.289Z,97826.88
2018-07-21T16:17:41.240Z,97826.34
2018-07-21T16:20:12.069Z,97825.55
2018-07-21T16:22:42.028Z,97820.22
2018-07-21T16:25:12.820Z,97819.66
2018-07-21T16:27:44.878Z,97810.30
2018-07-21T16:30:15.940Z,97810.48
2018-07-21T16:32:45.988Z,97809.88
2018-07-21T16:35:18.271Z,97816.53
2018-07-21T16:37:51.472Z,97824.64
2018-07-21T16:40:21.588Z,97817.86
2018-07-21T16:43:01.240Z,97823.02
2018-07-21T16:45:31.450Z,97825.69
2018-07-21T16:48:04.394Z,97824.38
2018-07-21T16:50:34.347Z,97819.70
2018-07-21T16:53:04.673Z,97816.41
2018-07-21T16:55:34.643Z,97821.38
2018-07-21T16:58:06.433Z,97820.38
2018-07-21T17:00:36.853Z,97822.06
2018-07-21T17:03:07.298Z,97814.25
2018-07-21T17:05:43.532Z,97814.73
2018-07-21T17:08:13.581Z,97816.75
2018-07-21T17:10:44.104Z,97814.59
2018-07-21T17:13:16.956Z,97807.61
2018-07-21T17:15:46.979Z,97811.78
2018-07-21T17:18:17.640Z,97807.63
2018-07-21T17:20:52.581Z,97811.93
2018-07-21T17:26:07.878Z,97808.62
2018-07-21T17:28:40.263Z,97810.27
2018-07-21T17:31:10.362Z,97818.08
2018-07-21T17:33:40.369Z,97816.22
2018-07-21T17:36:12.452Z,97823.69
2018-07-21T17:38:42.282Z,97823.02
2018-07-21T17:41:12.248Z,97821.70
2018-07-21T17:43:45.873Z,97831.70
2018-07-21T17:46:18.905Z,97830.38
2018-07-21T17:48:50.738Z,97826.03
2018-07-21T17:51:21.501Z,97830.33
2018-07-21T17:53:51.425Z,97828.19
2018-07-21T17:56:21.904Z,97824.34
2018-07-21T17:58:53.875Z,97822.34
2018-07-21T18:01:25.447Z,97832.64
2018-07-21T18:03:56.244Z,97837.61
2018-07-21T18:06:26.333Z,97834.81
2018-07-21T18:08:56.506Z,97830.45
2018-07-21T18:11:36.286Z,97832.42
2018-07-21T18:14:22.005Z,97831.28
2018-07-21T18:16:53.725Z,97829.44
2018-07-21T18:19:42.865Z,97830.55
2018-07-21T18:22:13.086Z,97827.24
2018-07-21T18:24:44.535Z,97827.71
2018-07-21T18:27:18.891Z,97824.88
2018-07-21T18:29:48.965Z,97827.16
2018-07-21T18:32:21.125Z,97829.83
2018-07-21T18:34:55.441Z,97825.78
2018-07-21T18:37:26.980Z,97823.10
2018-07-21T18:39:59.297Z,97827.92
2018-07-21T18:42:38.153Z,97826.11
2018-07-21T18:45:17.493Z,97825.76
2018-07-21T18:47:49.780Z,97824.92
2018-07-21T18:50:32.569Z,97824.72
2018-07-21T18:53:06.121Z,97821.86
2018-07-21T18:55:37.671Z,97819.17
2018-07-21T18:58:08.993Z,97820.98
2018-07-21T19:00:38.996Z,97825.00
2018-07-21T19:03:13.203Z,97827.66
2018-07-21T19:05:44.431Z,97828.31
2018-07-21T19:09:17.331Z,97822.48
2018-07-21T19:11:58.574Z,97829.92
2018-07-21T19:14:30.131Z,97829.44
2018-07-21T19:17:01.864Z,97828.91
2018-07-21T19:19:37.026Z,97832.19
2018-07-21T19:22:07.257Z,97838.64
2018-07-21T19:24:38.127Z,97839.83
2018-07-21T19:27:14.162Z,97845.89
2018-07-21T19:29:47.413Z,97848.84
2018-07-21T19:32:55.140Z,97852.43
2018-07-21T19:35:30.162Z,97861.80
2018-07-21T19:38:03.156Z,97864.43
2018-07-21T19:40:34.105Z,97862.71
2018-07-21T19:43:04.637Z,97870.00
2018-07-21T19:45:35.019Z,97866.69
2018-07-21T19:48:06.453Z,97867.75
2018-07-21T19:50:36.665Z,97873.28
2018-07-21T19:53:06.717Z,97873.64
2018-07-21T19:55:41.408Z,97880.33
2018-07-21T19:58:12.206Z,97883.27
2018-07-21T20:03:50.253Z,97885.78
2018-07-21T20:06:29.337Z,97888.60
2018-07-21T20:09:00.999Z,97891.88
2018-07-21T20:11:47.504Z,97887.64
2018-07-21T20:14:33.285Z,97891.56
2018-07-21T20:22:29.055Z,97891.14
2018-07-21T20:25:06.336Z,97894.04
2018-07-21T20:27:37.226Z,97893.69
2018-07-21T20:30:07.605Z,97898.50
2018-07-21T20:32:38.863Z,97903.70
2018-07-21T20:35:08.953Z,97900.88
2018-07-21T20:37:45.852Z,97900.38
2018-07-21T20:40:16.282Z,97903.34
2018-07-21T20:46:03.047Z,97911.47
2018-07-21T20:48:33.725Z,97906.96
2018-07-21T20:51:03.851Z,97903.94
2018-07-21T20:53:34.337Z,97905.80
2018-07-21T20:56:04.369Z,97902.31
2018-07-21T20:58:34.735Z,97907.80
2018-07-21T21:04:27.575Z,97900.69
2018-07-21T21:06:58.087Z,97911.13
2018-07-21T21:09:31.233Z,97906.66
2018-07-21T21:12:01.777Z,97906.70
2018-07-21T21:14:32.762Z,97906.70
2018-07-21T21:17:03.138Z,97907.63
2018-07-21T21:19:39.590Z,97904.61
2018-07-21T21:22:16.520Z,97908.15
2018-07-21T21:24:49.657Z,97909.08
2018-07-21T21:27:52.366Z,97909.48
2018-07-21T21:30:42.527Z,97900.81
2018-07-21T21:36:20.174Z,97902.48
2018-07-21T21:38:50.411Z,97902.14
2018-07-21T21:41:22.864Z,97902.14
2018-07-21T21:43:52.756Z,97900.73
2018-07-21T21:46:22.792Z,97900.36
2018-07-21T21:48:52.839Z,97903.69
2018-07-21T21:51:24.352Z,97905.01
2018-07-21T21:53:54.275Z,97903.69
2018-07-21T21:56:24.197Z,97905.66
2018-07-21T21:58:54.726Z,97905.66
2018-07-21T22:01:24.865Z,97903.69
2018-07-21T22:03:54.841Z,97901.03
2018-07-21T22:06:25.294Z,97905.36
2018-07-21T22:08:55.228Z,97906.88
2018-07-21T22:15:13.631Z,97904.66
2018-07-21T22:17:44.476Z,97913.93
2018-07-21T22:20:14.914Z,97910.28
2018-07-21T22:22:45.443Z,97908.23
2018-07-21T22:25:37.907Z,97914.20
2018-07-21T22:28:08.341Z,97911.69
2018-07-21T22:30:38.301Z,97905.36
2018-07-21T22:33:09.847Z,97909.88
2018-07-21T22:35:39.766Z,97914.03
2018-07-21T22:38:09.676Z,97908.52
2018-07-21T22:40:39.858Z,97902.20
2018-07-21T22:43:09.750Z,97904.50
2018-07-21T22:45:39.694Z,97905.17
2018-07-21T22:48:09.627Z,97910.34
2018-07-21T22:50:39.823Z,97907.69
2018-07-21T22:53:09.740Z,97907.82
2018-07-21T22:55:39.651Z,97906.17
2018-07-21T22:58:10.863Z,97901.55
2018-07-21T23:00:42.969Z,97903.25
2018-07-21T23:03:13.026Z,97896.92
2018-07-21T23:05:43.259Z,97899.09
2018-07-21T23:08:13.604Z,97896.61
2018-07-21T23:10:43.909Z,97903.17
2018-07-21T23:13:14.642Z,97900.42
2018-07-21T23:15:45.733Z,97899.55
2018-07-21T23:18:18.460Z,97896.91
2018-07-21T23:20:48.593Z,97900.52
2018-07-21T23:23:21.059Z,97890.58
2018-07-21T23:25:51.628Z,97893.66
2018-07-21T23:29:37.030Z,97883.31
2018-07-21T23:32:08.023Z,97893.91
2018-07-21T23:34:38.745Z,97895.69
2018-07-21T23:37:09.975Z,97900.09
2018-07-21T23:39:40.103Z,97885.88
2018-07-21T23:42:11.005Z,97893.46
2018-07-21T23:44:41.264Z,97892.63
2018-07-21T23:47:19.264Z,97886.82
2018-07-21T23:49:54.997Z,97889.25
2018-07-21T23:53:54.925Z,97883.71
2018-07-21T23:56:25.850Z,97879.20
2018-07-21T23:58:56.100Z,97872.44
